< Typhoon 201423 2015 Season Typhoon 201502 >
Typhoon 201501 (MEKKHALA)
General InformationTrack Information on Google MapsDetailed Wind InformationForecast History on Google MapsAccess Analytics MapList of All Images || NewsDisaster Info.WeblogTrackbackTyphoon FrontTwiphoonTyphoon Now!Typhoon ImaginationDisaster Info. XMLResourceGoogle EarthGE AnimationAtom FeedGeoJSON
Detalied Best Track (Time Zone = UTC)
Year Month Day Hour Lat. Long. Pressure (hPa) Wind (kt) Class Image Chart
2015 1 13 00 8.7 142.9 1006 0 2 Image Chart
2015 1 13 06 8.5 142.4 1004 0 2 Image Chart
2015 1 13 12 8.6 141.7 1002 35 3 Image Chart
2015 1 13 18 9.2 140.7 1002 35 3 Image Chart
2015 1 14 00 10.1 139.5 1002 35 3 Image Chart
2015 1 14 06 10.3 138.4 1000 35 3 Image Chart
2015 1 14 12 10.9 137.1 1000 35 3 Image Chart
2015 1 14 18 11.3 135.6 1000 35 3 Image Chart
2015 1 15 00 11.4 134.2 998 35 3 Image Chart
2015 1 15 06 11.6 133.2 996 35 3 Image Chart
2015 1 15 12 11.7 132.7 994 40 3 Image Chart
2015 1 15 18 11.6 131.7 992 40 3 Image Chart
2015 1 16 00 11.3 130.7 990 45 3 Image Chart
2015 1 16 06 11.3 129.3 985 50 4 Image Chart
2015 1 16 12 11.2 128.5 980 50 4 Image Chart
2015 1 16 18 11.0 127.5 975 60 4 Image Chart
2015 1 17 00 11.4 126.7 975 60 4 Image Chart
2015 1 17 06 11.9 126.0 975 60 4 Image Chart
2015 1 17 12 12.4 125.2 990 45 3 Image Chart
2015 1 17 18 12.7 124.3 992 40 3 Image Chart
2015 1 18 00 13.5 123.6 996 35 3 Image Chart
2015 1 18 06 13.9 122.9 996 35 3 Image Chart
2015 1 18 12 14.8 122.6 1000 35 3 Image Chart
2015 1 18 18 16.0 122.5 1004 0 2 Image Chart
2015 1 19 00 16.6 122.8 1010 0 2 Image Chart
2015 1 19 06 16.8 123.1 1010 0 2 Image Chart
2015 1 19 12 16.8 123.3 1012 0 2 Image Chart
2015 1 19 18 16.8 123.9 1012 0 2 Image Chart
2015 1 20 00 16.8 124.4 1012 0 2 Image Chart
2015 1 20 06 16.9 124.7 1012 0 2 Image Chart
2015 1 20 12 17.0 125.0 1012 0 2 Image Chart
2015 1 20 18 17.3 125.2 1012 0 2 Image Chart
Japan Meteorological Agency Best Track Data | Correction Date : 2015-02-17
< Typhoon 201423 2015 Season Typhoon 201502 >

Help